Fri Langesund — ZDKQ8 — position and weather

sailwx.info

Track history (hours):
 
Tides and Currents Weather Stations Pressure Air Temp Water Temp Dewpoint Dewpoint Depression Visibility Wind Speed Wind Dir Waves Ship Positions

Fri Langesund

Last reported at 2014-Jul-24 05:32 UTC. Time now 2014-Jul-24 06:28 UTC.
Position N 51°27' E 003°43'.

Length 90 m; draft 5.8 m.

Type: Cargo ship. MMSI: 236111779.

Date/timePositionNaut miles runAvg speedWind from/ knotsBaromVisibWave heightAir tempDewpointWater temp
2014-Jul-24 05:32N 51°27' E 003°43'0 0.0
2014-Jul-24 04:29N 51°27' E 003°43'0 0.0
2014-Jul-24 03:32N 51°27' E 003°43'0 0.0
2014-Jul-24 02:32N 51°27' E 003°43'0 0.0
2014-Jul-24 01:32N 51°27' E 003°43'0 0.0
2014-Jul-24 00:32N 51°27' E 003°43'0 0.0
2014-Jul-23 23:29N 51°27' E 003°43'0 0.0
2014-Jul-23 22:32N 51°27' E 003°43'0 0.0
2014-Jul-23 21:32N 51°27' E 003°43'0 0.0
2014-Jul-23 20:32N 51°27' E 003°43'0 0.0
2014-Jul-23 19:32N 51°27' E 003°43'0 0.0
2014-Jul-23 18:32N 51°27' E 003°43'0 0.0
2014-Jul-23 17:32N 51°27' E 003°43'0 0.0
2014-Jul-23 16:32N 51°27' E 003°43'0 0.0
2014-Jul-23 15:32N 51°27' E 003°43'0 0.0
2014-Jul-23 14:32N 51°27' E 003°43'0 0.0
2014-Jul-23 13:32N 51°27' E 003°43'0 0.0
2014-Jul-23 12:32N 51°27' E 003°43'0 0.0
2014-Jul-23 11:32N 51°27' E 003°43'0 0.0
2014-Jul-23 10:29N 51°27' E 003°43'0 0.0
2014-Jul-23 09:32N 51°27' E 003°43'2 1.7
2014-Jul-23 08:34N 51°27' E 003°41'1212.0
2014-Jul-23 07:33N 51°24' E 003°22'1210.9
2014-Jul-23 06:28N 51°24' E 003°03'9 9.6
2014-Jul-23 05:33N 51°22' E 002°50'9 9.1
2014-Jul-23 04:34N 51°22' E 002°35'9 9.2
2014-Jul-23 03:33N 51°19' E 002°21'10 9.8
2014-Jul-23 02:33N 51°14' E 002°07'1110.2
2014-Jul-23 01:31N 51°09' E 001°53'1010.5
2014-Jul-23 00:33N 51°02' E 001°41'1111.3
2014-Jul-22 23:33N 50°54' E 001°29'  
2014-Jul-20 14:27N 50°04' E 001°23'24 0.7
2014-Jul-19 05:34N 50°19' E 000°54'10 8.9
2014-Jul-19 04:26N 50°26' E 000°44'8 9.0
2014-Jul-19 03:34N 50°34' E 000°41'7 7.0
2014-Jul-19 02:33N 50°40' E 000°48'9 7.8
2014-Jul-19 01:25N 50°45' E 000°60'9 9.4
2014-Jul-19 00:24N 50°51' E 001°11'911.2
2014-Jul-18 23:34N 50°58' E 001°22'1211.7
2014-Jul-18 22:33N 51°06' E 001°35'10 9.9
2014-Jul-18 21:34N 51°14' E 001°45'8 8.0
2014-Jul-18 20:34N 51°20' E 001°52'8 7.8
2014-Jul-18 19:34N 51°27' E 001°58'8 7.8
2014-Jul-18 18:33N 51°33' E 002°06'8 7.9
2014-Jul-18 17:34N 51°39' E 002°14'4510.1
2014-Jul-18 13:07N 52°13' E 003°02'711.7
2014-Jul-18 12:33N 52°18' E 003°09'1111.2
2014-Jul-18 11:33N 52°27' E 003°19'1010.5
2014-Jul-18 10:33N 52°36' E 003°29'10 9.6
2014-Jul-18 09:32N 52°43' E 003°40'9 9.0
2014-Jul-18 08:32N 52°50' E 003°49'8 8.5
2014-Jul-18 07:33N 52°57' E 003°58'10 8.7
2014-Jul-18 06:26N 53°03' E 004°09'9 9.8
2014-Jul-18 05:33N 53°09' E 004°20'1010.6
2014-Jul-18 04:34N 53°18' E 004°29'1110.7
2014-Jul-18 03:33N 53°27' E 004°38'1110.8
2014-Jul-18 02:34N 53°32' E 004°55'1010.2
2014-Jul-18 01:33N 53°36' E 005°11'9 9.3
2014-Jul-18 00:33N 53°38' E 005°26'9 8.7
2014-Jul-17 23:34N 53°41' E 005°40'9 8.6
2014-Jul-17 22:33N 53°44' E 005°53'9 9.0
2014-Jul-17 21:33N 53°47' E 006°08'10 9.8
2014-Jul-17 20:33N 53°50' E 006°23'1110.8
2014-Jul-17 19:32N 53°53' E 006°42'1111.0
2014-Jul-17 18:31N 53°55' E 006°60'1110.8
2014-Jul-17 17:28N 53°58' E 007°19'910.4
2014-Jul-17 16:34N 54°00' E 007°34'10 9.7
2014-Jul-17 15:33N 54°01' E 007°51'9 9.3
2014-Jul-17 14:34N 54°01' E 008°06'10 9.1
2014-Jul-17 13:25N 53°59' E 008°24'7 7.7
2014-Jul-17 12:34N 53°58' E 008°35'8 8.1
2014-Jul-17 11:34N 53°52' E 008°44'1111.4
2014-Jul-17 10:33N 53°52' E 009°04'3 3.3
2014-Jul-17 09:32N 53°54' E 009°09'6 6.0
2014-Jul-17 08:32N 53°58' E 009°16'4 4.3
2014-Jul-17 07:33N 54°02' E 009°18'7 6.7
2014-Jul-17 06:33N 54°09' E 009°21'8 7.6
2014-Jul-17 05:32N 54°12' E 009°33'7 7.3
2014-Jul-17 04:32N 54°18' E 009°41'54 6.0
2014-Jul-16 19:27N 54°36' E 011°08'7 8.2
2014-Jul-16 18:34N 54°34' E 011°20'9 8.9
2014-Jul-16 17:33N 54°30' E 011°34'9 8.8
2014-Jul-16 16:33N 54°27' E 011°48'9 9.0
2014-Jul-16 15:33N 54°27' E 012°03'8 7.9
2014-Jul-16 14:33N 54°33' E 012°13'9 8.8
2014-Jul-16 13:33N 54°40' E 012°22'11 9.4
2014-Jul-16 12:24N 54°45' E 012°38'9 9.4
2014-Jul-16 11:23N 54°47' E 012°54'8 9.6
2014-Jul-16 10:33N 54°46' E 013°08'10 9.6
2014-Jul-16 09:33N 54°46' E 013°25'1010.3
2014-Jul-16 08:34N 54°45' E 013°42'1010.2
2014-Jul-16 07:34N 54°43' E 013°60'1010.2
2014-Jul-16 06:33N 54°41' E 014°17'1010.1
2014-Jul-16 05:33N 54°41' E 014°35'1010.2
2014-Jul-16 04:34N 54°42' E 014°52'3010.1
2014-Jul-16 01:33N 54°45' E 015°45'3110.3
2014-Jul-15 22:33N 54°50' E 016°38'2210.4
2014-Jul-15 20:29N 54°54' E 017°14'1110.3
2014-Jul-15 19:24N 54°55' E 017°34'1210.3
2014-Jul-15 18:14N 54°56' E 017°54'710.0
2014-Jul-15 17:32N 54°56' E 018°07'19 9.8
2014-Jul-15 15:34N 54°54' E 018°40'10 9.9
2014-Jul-15 14:34N 54°48' E 018°54'9 8.7
2014-Jul-15 13:34N 54°39' E 018°57'1010.0
2014-Jul-15 12:33N 54°31' E 018°47'7 7.5
2014-Jul-15 11:33N 54°24' E 018°41'2 1.7
2014-Jul-15 10:28N 54°22' E 018°40'0 0.0
2014-Jul-15 09:31N 54°22' E 018°40'0 0.0
2014-Jul-15 08:31N 54°22' E 018°40'0 0.0
2014-Jul-15 07:31N 54°22' E 018°40'0 0.0
2014-Jul-15 06:31N 54°22' E 018°40'0 0.0
2014-Jul-15 05:31N 54°22' E 018°40'0 0.0
2014-Jul-15 04:31N 54°22' E 018°40'0 0.0
2014-Jul-15 03:31N 54°22' E 018°40'0 0.0
2014-Jul-15 02:31N 54°22' E 018°40'0 0.0
2014-Jul-15 01:31N 54°22' E 018°40'0 0.0
2014-Jul-15 00:31N 54°22' E 018°40'0 0.0
2014-Jul-14 23:31N 54°22' E 018°40'0 0.0
2014-Jul-14 22:31N 54°22' E 018°40'0 0.0
2014-Jul-14 21:31N 54°22' E 018°40'0 0.0
2014-Jul-14 20:31N 54°22' E 018°40'0 0.0
2014-Jul-14 19:31N 54°22' E 018°40'0 0.0
2014-Jul-14 18:31N 54°22' E 018°40'0 0.0
2014-Jul-14 17:31N 54°22' E 018°40'0 0.0
2014-Jul-14 16:31N 54°22' E 018°40'0 0.0
2014-Jul-14 15:31N 54°22' E 018°40'0 0.0
2014-Jul-14 14:31N 54°22' E 018°40'0 0.0
2014-Jul-14 13:31N 54°22' E 018°40'0 0.0
2014-Jul-14 12:28N 54°22' E 018°40'0 0.0
2014-Jul-14 11:31N 54°22' E 018°40'0 0.0
2014-Jul-14 10:31N 54°22' E 018°40'0 0.0
2014-Jul-14 09:31N 54°22' E 018°40'0 0.0
2014-Jul-14 08:31N 54°22' E 018°40'0 0.0
2014-Jul-14 07:31N 54°22' E 018°40'0 0.0
2014-Jul-14 06:31N 54°22' E 018°40'  
Track history (hours):
 
Tides and Currents Weather Stations Pressure Air Temp Water Temp Dewpoint Dewpoint Depression Visibility Wind Speed Wind Dir Waves Ship Positions

Fri Langesund

Last reported at 2014-Jul-24 05:32 UTC. Time now 2014-Jul-24 06:28 UTC.
Position N 51°27' E 003°43'.

Length 90 m; draft 5.8 m.

Type: Cargo ship. MMSI: 236111779.

Date/timePositionNaut miles runAvg speedWind from/ knotsBaromVisibWave heightAir tempDewpointWater temp
2014-Jul-24 05:32N 51°27' E 003°43'0 0.0
2014-Jul-24 04:29N 51°27' E 003°43'0 0.0
2014-Jul-24 03:32N 51°27' E 003°43'0 0.0
2014-Jul-24 02:32N 51°27' E 003°43'0 0.0
2014-Jul-24 01:32N 51°27' E 003°43'0 0.0
2014-Jul-24 00:32N 51°27' E 003°43'0 0.0
2014-Jul-23 23:29N 51°27' E 003°43'0 0.0
2014-Jul-23 22:32N 51°27' E 003°43'0 0.0
2014-Jul-23 21:32N 51°27' E 003°43'0 0.0
2014-Jul-23 20:32N 51°27' E 003°43'0 0.0
2014-Jul-23 19:32N 51°27' E 003°43'0 0.0
2014-Jul-23 18:32N 51°27' E 003°43'0 0.0
2014-Jul-23 17:32N 51°27' E 003°43'0 0.0
2014-Jul-23 16:32N 51°27' E 003°43'0 0.0
2014-Jul-23 15:32N 51°27' E 003°43'0 0.0
2014-Jul-23 14:32N 51°27' E 003°43'0 0.0
2014-Jul-23 13:32N 51°27' E 003°43'0 0.0
2014-Jul-23 12:32N 51°27' E 003°43'0 0.0
2014-Jul-23 11:32N 51°27' E 003°43'0 0.0
2014-Jul-23 10:29N 51°27' E 003°43'0 0.0
2014-Jul-23 09:32N 51°27' E 003°43'2 1.7
2014-Jul-23 08:34N 51°27' E 003°41'1212.0
2014-Jul-23 07:33N 51°24' E 003°22'1210.9
2014-Jul-23 06:28N 51°24' E 003°03'9 9.6
2014-Jul-23 05:33N 51°22' E 002°50'9 9.1
2014-Jul-23 04:34N 51°22' E 002°35'9 9.2
2014-Jul-23 03:33N 51°19' E 002°21'10 9.8
2014-Jul-23 02:33N 51°14' E 002°07'1110.2
2014-Jul-23 01:31N 51°09' E 001°53'1010.5
2014-Jul-23 00:33N 51°02' E 001°41'1111.3
2014-Jul-22 23:33N 50°54' E 001°29'  
2014-Jul-20 14:27N 50°04' E 001°23'24 0.7
2014-Jul-19 05:34N 50°19' E 000°54'10 8.9
2014-Jul-19 04:26N 50°26' E 000°44'8 9.0
2014-Jul-19 03:34N 50°34' E 000°41'7 7.0
2014-Jul-19 02:33N 50°40' E 000°48'9 7.8
2014-Jul-19 01:25N 50°45' E 000°60'9 9.4
2014-Jul-19 00:24N 50°51' E 001°11'911.2
2014-Jul-18 23:34N 50°58' E 001°22'1211.7
2014-Jul-18 22:33N 51°06' E 001°35'10 9.9
2014-Jul-18 21:34N 51°14' E 001°45'8 8.0
2014-Jul-18 20:34N 51°20' E 001°52'8 7.8
2014-Jul-18 19:34N 51°27' E 001°58'8 7.8
2014-Jul-18 18:33N 51°33' E 002°06'8 7.9
2014-Jul-18 17:34N 51°39' E 002°14'4510.1
2014-Jul-18 13:07N 52°13' E 003°02'711.7
2014-Jul-18 12:33N 52°18' E 003°09'1111.2
2014-Jul-18 11:33N 52°27' E 003°19'1010.5
2014-Jul-18 10:33N 52°36' E 003°29'10 9.6
2014-Jul-18 09:32N 52°43' E 003°40'9 9.0
2014-Jul-18 08:32N 52°50' E 003°49'8 8.5
2014-Jul-18 07:33N 52°57' E 003°58'10 8.7
2014-Jul-18 06:26N 53°03' E 004°09'9 9.8
2014-Jul-18 05:33N 53°09' E 004°20'1010.6
2014-Jul-18 04:34N 53°18' E 004°29'1110.7
2014-Jul-18 03:33N 53°27' E 004°38'1110.8
2014-Jul-18 02:34N 53°32' E 004°55'1010.2
2014-Jul-18 01:33N 53°36' E 005°11'9 9.3
2014-Jul-18 00:33N 53°38' E 005°26'9 8.7
2014-Jul-17 23:34N 53°41' E 005°40'9 8.6
2014-Jul-17 22:33N 53°44' E 005°53'9 9.0
2014-Jul-17 21:33N 53°47' E 006°08'10 9.8
2014-Jul-17 20:33N 53°50' E 006°23'1110.8
2014-Jul-17 19:32N 53°53' E 006°42'1111.0
2014-Jul-17 18:31N 53°55' E 006°60'1110.8
2014-Jul-17 17:28N 53°58' E 007°19'910.4
2014-Jul-17 16:34N 54°00' E 007°34'10 9.7
2014-Jul-17 15:33N 54°01' E 007°51'9 9.3
2014-Jul-17 14:34N 54°01' E 008°06'10 9.1
2014-Jul-17 13:25N 53°59' E 008°24'7 7.7
2014-Jul-17 12:34N 53°58' E 008°35'8 8.1
2014-Jul-17 11:34N 53°52' E 008°44'1111.4
2014-Jul-17 10:33N 53°52' E 009°04'3 3.3
2014-Jul-17 09:32N 53°54' E 009°09'6 6.0
2014-Jul-17 08:32N 53°58' E 009°16'4 4.3
2014-Jul-17 07:33N 54°02' E 009°18'7 6.7
2014-Jul-17 06:33N 54°09' E 009°21'8 7.6
2014-Jul-17 05:32N 54°12' E 009°33'7 7.3
2014-Jul-17 04:32N 54°18' E 009°41'54 6.0
2014-Jul-16 19:27N 54°36' E 011°08'7 8.2
2014-Jul-16 18:34N 54°34' E 011°20'9 8.9
2014-Jul-16 17:33N 54°30' E 011°34'9 8.8
2014-Jul-16 16:33N 54°27' E 011°48'9 9.0
2014-Jul-16 15:33N 54°27' E 012°03'8 7.9
2014-Jul-16 14:33N 54°33' E 012°13'9 8.8
2014-Jul-16 13:33N 54°40' E 012°22'11 9.4
2014-Jul-16 12:24N 54°45' E 012°38'9 9.4
2014-Jul-16 11:23N 54°47' E 012°54'8 9.6
2014-Jul-16 10:33N 54°46' E 013°08'10 9.6
2014-Jul-16 09:33N 54°46' E 013°25'1010.3
2014-Jul-16 08:34N 54°45' E 013°42'1010.2
2014-Jul-16 07:34N 54°43' E 013°60'1010.2
2014-Jul-16 06:33N 54°41' E 014°17'1010.1
2014-Jul-16 05:33N 54°41' E 014°35'1010.2
2014-Jul-16 04:34N 54°42' E 014°52'3010.1
2014-Jul-16 01:33N 54°45' E 015°45'3110.3
2014-Jul-15 22:33N 54°50' E 016°38'2210.4
2014-Jul-15 20:29N 54°54' E 017°14'1110.3
2014-Jul-15 19:24N 54°55' E 017°34'1210.3
2014-Jul-15 18:14N 54°56' E 017°54'710.0
2014-Jul-15 17:32N 54°56' E 018°07'19 9.8
2014-Jul-15 15:34N 54°54' E 018°40'10 9.9
2014-Jul-15 14:34N 54°48' E 018°54'9 8.7
2014-Jul-15 13:34N 54°39' E 018°57'1010.0
2014-Jul-15 12:33N 54°31' E 018°47'7 7.5
2014-Jul-15 11:33N 54°24' E 018°41'2 1.7
2014-Jul-15 10:28N 54°22' E 018°40'0 0.0
2014-Jul-15 09:31N 54°22' E 018°40'0 0.0
2014-Jul-15 08:31N 54°22' E 018°40'0 0.0
2014-Jul-15 07:31N 54°22' E 018°40'0 0.0
2014-Jul-15 06:31N 54°22' E 018°40'0 0.0
2014-Jul-15 05:31N 54°22' E 018°40'0 0.0
2014-Jul-15 04:31N 54°22' E 018°40'0 0.0
2014-Jul-15 03:31N 54°22' E 018°40'0 0.0
2014-Jul-15 02:31N 54°22' E 018°40'0 0.0
2014-Jul-15 01:31N 54°22' E 018°40'0 0.0
2014-Jul-15 00:31N 54°22' E 018°40'0 0.0
2014-Jul-14 23:31N 54°22' E 018°40'0 0.0
2014-Jul-14 22:31N 54°22' E 018°40'0 0.0
2014-Jul-14 21:31N 54°22' E 018°40'0 0.0
2014-Jul-14 20:31N 54°22' E 018°40'0 0.0
2014-Jul-14 19:31N 54°22' E 018°40'0 0.0
2014-Jul-14 18:31N 54°22' E 018°40'0 0.0
2014-Jul-14 17:31N 54°22' E 018°40'0 0.0
2014-Jul-14 16:31N 54°22' E 018°40'0 0.0
2014-Jul-14 15:31N 54°22' E 018°40'0 0.0
2014-Jul-14 14:31N 54°22' E 018°40'0 0.0
2014-Jul-14 13:31N 54°22' E 018°40'0 0.0
2014-Jul-14 12:28N 54°22' E 018°40'0 0.0
2014-Jul-14 11:31N 54°22' E 018°40'0 0.0
2014-Jul-14 10:31N 54°22' E 018°40'0 0.0
2014-Jul-14 09:31N 54°22' E 018°40'0 0.0
2014-Jul-14 08:31N 54°22' E 018°40'0 0.0
2014-Jul-14 07:31N 54°22' E 018°40'0 0.0
2014-Jul-14 06:31N 54°22' E 018°40'  

Dump ship's entire track history